Latest Weather Observations for Armament Jetty

IDW60801

Issued at 8:13 pm WST Friday 15 November 2019 (issued every 10 minutes, with the page automatically refreshed every 10 minutes)

About weather observations | Map of weather stations | Latest weather observations for WA | Other Formats
Station Details ID: 009254 Name: ARMAMENT JETTY Lat: -32.18 Lon: 115.68 Height: 9.0 m
Data from the previous 72 hours. | See also: Recent months for locations in Western Australia
Date/Time
WST
Temp
°C
App
Temp
°C
Dew
Point
°C
Rel
Hum
%
Delta-T
°C
Wind Press
QNH
hPa
Press
MSL
hPa
Rain since
9am
mm
Dir  Spd
km/h
Gust
km/h
Spd
kts
Gust
kts
15/08:00pm - - - - - SSW 22 32 12 17 - - -
15/07:30pm - - - - - SSW 32 39 17 21 - - -
15/07:00pm - - - - - SSW 32 35 17 19 - - -
15/06:30pm - - - - - SSW 32 37 17 20 - - -
15/06:00pm - - - - - SSW 35 41 19 22 - - -
15/05:30pm - - - - - SSW 37 43 20 23 - - -
15/05:00pm - - - - - SSW 35 43 19 23 - - -
15/04:30pm - - - - - SSW 33 41 18 22 - - -
15/04:00pm - - - - - SSW 39 48 21 26 - - -
15/03:30pm - - - - - SSW 32 39 17 21 - - -
15/03:00pm - - - - - SW 24 28 13 15 - - -
15/02:30pm - - - - - SW 24 30 13 16 - - -
15/02:00pm - - - - - SW 24 30 13 16 - - -
15/01:30pm - - - - - WSW 19 24 10 13 - - -
15/01:00pm - - - - - W 17 22 9 12 - - -
15/12:30pm - - - - - N 9 17 5 9 - - -
15/12:00pm - - - - - ENE 11 17 6 9 - - -
15/11:30am - - - - - ESE 17 19 9 10 - - -
15/11:00am - - - - - E 19 30 10 16 - - -
15/10:30am - - - - - E 28 30 15 16 - - -
15/10:00am - - - - - ESE 20 28 11 15 - - -
15/09:30am - - - - - SSE 22 28 12 15 - - -
15/09:00am - - - - - SSE 19 22 10 12 - - -
15/08:30am - - - - - SSE 19 22 10 12 - - -
15/08:00am - - - - - SSE 15 19 8 10 - - -
15/07:30am - - - - - SE 17 20 9 11 - - -
15/07:00am - - - - - SE 19 24 10 13 - - -
15/06:30am - - - - - SE 22 30 12 16 - - -
15/06:00am - - - - - SE 20 24 11 13 - - -
15/05:30am - - - - - ESE 26 30 14 16 - - -
15/05:00am - - - - - ESE 22 26 12 14 - - -
15/04:30am - - - - - ESE 26 30 14 16 - - -
15/04:00am - - - - - ESE 20 26 11 14 - - -
15/03:30am - - - - - ESE 26 32 14 17 - - -
15/03:00am - - - - - ESE 28 33 15 18 - - -
15/02:30am - - - - - ESE 28 33 15 18 - - -
15/02:00am - - - - - E 33 44 18 24 - - -
15/01:30am - - - - - ESE 26 33 14 18 - - -
15/01:00am - - - - - ESE 24 30 13 16 - - -
15/12:30am - - - - - SE 26 32 14 17 - - -
15/12:00am - - - - - SE 20 28 11 15 - - -
 
Date/Time
WST
Temp
°C
App
Temp
°C
Dew
Point
°C
Rel
Hum
%
Delta-T
°C
Wind Press
QNH
hPa
Press
MSL
hPa
Rain since
9am
mm
Dir  Spd
km/h
Gust
km/h
Spd
kts
Gust
kts
14/11:30pm - - - - - SSE 24 26 13 14 - - -
14/11:00pm - - - - - S 22 26 12 14 - - -
14/10:30pm - - - - - S 26 30 14 16 - - -
14/10:00pm - - - - - S 26 32 14 17 - - -
14/09:30pm - - - - - S 30 35 16 19 - - -
14/09:00pm - - - - - S 30 35 16 19 - - -
14/08:30pm - - - - - SSW 30 37 16 20 - - -
14/08:00pm - - - - - SSW 32 37 17 20 - - -
14/07:30pm - - - - - SSW 39 48 21 26 - - -
14/07:00pm - - - - - SSW 41 54 22 29 - - -
14/06:30pm - - - - - SSW 35 44 19 24 - - -
14/06:00pm - - - - - SSW 41 48 22 26 - - -
14/05:30pm - - - - - SSW 41 50 22 27 - - -
14/05:00pm - - - - - SSW 39 50 21 27 - - -
14/04:30pm - - - - - SSW 39 46 21 25 - - -
14/04:00pm - - - - - SSW 35 44 19 24 - - -
14/03:30pm - - - - - SSW 37 46 20 25 - - -
14/03:00pm - - - - - SSW 35 41 19 22 - - -
14/02:30pm - - - - - SSW 33 37 18 20 - - -
14/02:00pm - - - - - SSW 37 44 20 24 - - -
14/01:30pm - - - - - SSW 32 39 17 21 - - -
14/01:00pm - - - - - SSW 28 32 15 17 - - -
14/12:30pm - - - - - SSW 28 33 15 18 - - -
14/12:00pm - - - - - SW 26 32 14 17 - - -
14/11:30am - - - - - SW 15 19 8 10 - - -
14/11:00am - - - - - SSE 2 7 1 4 - - -
14/10:30am - - - - - ESE 2 7 1 4 - - -
14/10:00am - - - - - CALM 0 0 0 0 - - -
14/09:30am - - - - - SSE 4 6 2 3 - - -
14/09:00am - - - - - SSE 9 9 5 5 - - -
14/08:30am - - - - - SSE 13 13 7 7 - - -
14/08:00am - - - - - SSE 11 11 6 6 - - -
14/07:30am - - - - - SSE 9 11 5 6 - - -
14/07:00am - - - - - SE 11 13 6 7 - - -
14/06:30am - - - - - SSE 15 17 8 9 - - -
14/06:00am - - - - - S 9 11 5 6 - - -
14/05:30am - - - - - S 13 15 7 8 - - -
14/05:00am - - - - - S 13 15 7 8 - - -
14/04:30am - - - - - SSE 13 15 7 8 - - -
14/04:00am - - - - - SSE 13 15 7 8 - - -
14/03:30am - - - - - SSE 13 15 7 8 - - -
14/03:00am - - - - - S 17 20 9 11 - - -
14/02:30am - - - - - SSE 17 19 9 10 - - -
14/02:00am - - - - - S 17 19 9 10 - - -
14/01:30am - - - - - SSE 17 19 9 10 - - -
14/01:00am - - - - - SSE 19 20 10 11 - - -
14/12:30am - - - - - SSE 20 22 11 12 - - -
14/12:00am - - - - - S 20 24 11 13 - - -
 
Date/Time
WST
Temp
°C
App
Temp
°C
Dew
Point
°C
Rel
Hum
%
Delta-T
°C
Wind Press
QNH
hPa
Press
MSL
hPa
Rain since
9am
mm
Dir  Spd
km/h
Gust
km/h
Spd
kts
Gust
kts
13/11:30pm - - - - - SSE 24 26 13 14 - - -
13/11:00pm - - - - - S 24 26 13 14 - - -
13/10:30pm - - - - - SSE 24 26 13 14 - - -
13/10:00pm - - - - - SSE 26 28 14 15 - - -
13/09:30pm - - - - - S 28 32 15 17 - - -
13/09:00pm - - - - - S 30 35 16 19 - - -
13/08:30pm - - - - - S 30 33 16 18 - - -
13/08:00pm - - - - - S 32 35 17 19 - - -
13/07:30pm - - - - - S 33 39 18 21 - - -
13/07:00pm - - - - - S 32 37 17 20 - - -
13/06:30pm - - - - - S 33 37 18 20 - - -
13/06:00pm - - - - - S 39 46 21 25 - - -
13/05:30pm - - - - - SSW 33 41 18 22 - - -
13/05:00pm - - - - - SSW 35 43 19 23 - - -
13/04:30pm - - - - - SSW 32 39 17 21 - - -
13/04:00pm - - - - - SSW 35 39 19 21 - - -
13/03:30pm - - - - - SSW 33 37 18 20 - - -
13/03:00pm - - - - - SSW 30 33 16 18 - - -
13/02:30pm - - - - - SSW 28 33 15 18 - - -
13/02:00pm - - - - - SW 22 26 12 14 - - -
13/01:30pm - - - - - SW 24 28 13 15 - - -
13/01:00pm - - - - - SW 19 22 10 12 - - -
13/12:30pm - - - - - SW 17 20 9 11 - - -
13/12:00pm - - - - - SSW 9 11 5 6 - - -
13/11:30am - - - - - S 11 11 6 6 - - -
13/11:00am - - - - - SSE 11 13 6 7 - - -
13/10:30am - - - - - ESE 9 13 5 7 - - -
13/10:00am - - - - - ENE 15 17 8 9 - - -
13/09:30am - - - - - E 17 19 9 10 - - -
13/09:00am - - - - - E 17 19 9 10 - - -
13/08:30am - - - - - E 19 20 10 11 - - -
13/08:00am - - - - - E 22 26 12 14 - - -
13/07:30am - - - - - E 20 28 11 15 - - -
13/07:00am - - - - - E 22 26 12 14 - - -
13/06:30am - - - - - E 24 30 13 16 - - -
13/06:00am - - - - - E 30 35 16 19 - - -
13/05:30am - - - - - E 30 35 16 19 - - -
13/05:00am - - - - - E 24 30 13 16 - - -
13/04:30am - - - - - E 24 32 13 17 - - -
13/04:00am - - - - - E 22 28 12 15 - - -
13/03:30am - - - - - ESE 20 26 11 14 - - -
13/03:00am - - - - - E 24 28 13 15 - - -
13/02:30am - - - - - E 24 33 13 18 - - -
13/02:00am - - - - - E 19 24 10 13 - - -
13/01:30am - - - - - E 20 24 11 13 - - -
13/01:00am - - - - - E 22 26 12 14 - - -
13/12:30am - - - - - E 28 32 15 17 - - -
13/12:00am - - - - - E 28 35 15 19 - - -
 
Date/Time
WST
Temp
°C
App
Temp
°C
Dew
Point
°C
Rel
Hum
%
Delta-T
°C
Wind Press
QNH
hPa
Press
MSL
hPa
Rain since
9am
mm
Dir  Spd
km/h
Gust
km/h
Spd
kts
Gust
kts
12/11:30pm - - - - - E 24 28 13 15 - - -
12/11:00pm - - - - - ESE 20 26 11 14 - - -
12/10:30pm - - - - - SE 22 26 12 14 - - -
12/10:00pm - - - - - SE 20 24 11 13 - - -
12/09:30pm - - - - - SE 19 20 10 11 - - -
12/09:00pm - - - - - SE 19 20 10 11 - - -
12/08:30pm - - - - - SE 22 24 12 13 - - -

Other formats

Comma delimited format used in spreadsheet applications
http://www.bom.gov.au/fwo/IDW60801/IDW60801.99254.axf

JavaScript Object Notation format (JSON) in row-major order
http://www.bom.gov.au/fwo/IDW60801/IDW60801.99254.json

Data quality

Most of these data are generated automatically and are frequently updated. Quality checks on data are not normally performed. It is possible for incorrect values to appear. Refer to information at About Latest Weather Observations and please check the disclaimer before using these data.